East Hartland, CT (06027)

8:29 AM EDT on August 05, 2015 (GMT -0400)
West Hartland, CT | | Change Station
CLOSE
Current Station
Personal Weather Station
Location: West Hartland, CT
Elevation: 1198 ft
Nearby Weather Stations

Elev 1198 ft 42.01 °N, 72.97 °W | Updated 25 seconds ago

Partly Cloudy
Partly Cloudy
62.4 °F
Feels Like 62.4 °F
N
0.0
Wind Variable Wind from ESE

Today
High -- | Low -- °F
--% Chance of Precip.
Yesterday
High -- | Low -- °F
Precip. -- in
5:48 AM 8:05 PM
Waning Gibbous, 67% visible
Pressure 29.89 in
Visibility 10.0 miles
Clouds Few 12000 ft
Few 22000 ft
Mostly Cloudy 25000 ft
Dew Point 62 °F
Humidity 97%
Rainfall 0.00 in
Snow Depth Not available.
UV 1 out of 12
Pollen 7.70 out of 12
Air Quality Not available.
Flu Activity Not available.
METAR KBDL 051151Z 27004KT 10SM FEW120 FEW220 BKN250 18/16 A2990 RMK AO2 SLP122 T01830156 10194 20156 55000

More Conditions Fewer Conditions

Pressure 29.89 in
Visibility 10.0 miles
Clouds Few 12000 ft
Few 22000 ft
Mostly Cloudy 25000 ft
Dew Point 62 °F
Humidity 97%
Rainfall 0.00 in
Snow Depth Not available.
UV 1 out of 12
Pollen 7.70 out of 12
Air Quality Not available.
Flu Activity Not available.
METAR KBDL 051151Z 27004KT 10SM FEW120 FEW220 BKN250 18/16 A2990 RMK AO2 SLP122 T01830156 10194 20156 55000

More Conditions Fewer Conditions

10-Day Weather Forecast

×

Almanac

Astronomy

Aug. 05, 2015 Rise Set
Actual Time
Civil Twilight
Nautical Twilight
Astronomical Twilight
Moon
Length of Visible Light
Length of Day
Tomorrow will be .
, % of the Moon is Illuminated

Today's Extremes

State Highs State Lows

Community

WunderPhotos

Upload Photos

1,844,171 photos uploaded!

WunderBlogs® & News

Nearby

Air Quality

  Air Quality AQ Index Pollutant
Not available.

Snow Depth

Station Depth Elevation

Earthquake Activity

City Distance Mag. Time & Date
Minimum magnitude displayed is 2.5.

Coastal Water Temperatures

Place Temperature

Stations

Nearby Weather Stations

Station Location Temp. Windchill Dew Point Humidity Wind Precip. Elev Updated Type